Time;durP1;ratioP1;P1;durP2;ratioP2;P2;SDS_P1;SDS_P2;PMS_P1;PMS_P2;Temp;Humidity;BMP_temperature;BMP_pressure;BME280_temperature;BME280_humidity;BME280_pressure;Samples;Min_cycle;Max_cycle;Signal;HPM_P1;HPM_P2
2021/10/18 00:02:07;;;;;;;46.78;19.02;;;;;;;;;;8197098;28;20484;-75
2021/10/18 00:06:12;;;;;;;51.20;18.95;;;;;;;;;;8191329;28;20462;-76
2021/10/18 00:10:18;;;;;;;42.83;17.77;;;;;;;;;;8172849;28;20076;-75
2021/10/18 00:14:23;;;;;;;48.05;18.65;;;;;;;;;;8214371;28;20372;-75
2021/10/18 00:18:29;;;;;;;47.42;17.50;;;;;;;;;;8202864;28;20455;-75
2021/10/18 00:22:34;;;;;;;47.45;18.08;;;;;;;;;;8235497;28;20071;-76
2021/10/18 00:26:42;;;;;;;40.22;16.73;;;;;;;;;;8219028;28;20053;-75
2021/10/18 00:30:48;;;;;;;42.88;17.55;;;;;;;;;;8218895;28;20468;-75
2021/10/18 00:34:54;;;;;;;40.10;18.27;;;;;;;;;;8218664;28;20468;-75
2021/10/18 00:38:59;;;;;;;39.67;16.50;;;;;;;;;;8217206;28;20110;-75
2021/10/18 00:43:07;;;;;;;;;;;;;;;;;;8235902;28;20502;-75
2021/10/18 00:47:20;;;;;;;45.80;16.13;;;;;;;;;;8237411;28;20343;-76
2021/10/18 00:51:28;;;;;;;33.83;14.80;;;;;;;;;;8218043;28;20441;-75
2021/10/18 00:55:33;;;;;;;42.90;15.93;;;;;;;;;;8233160;28;20045;-75
2021/10/18 00:59:39;;;;;;;39.35;16.77;;;;;;;;;;8202025;28;20175;-75
2021/10/18 01:03:44;;;;;;;37.50;16.23;;;;;;;;;;8217258;28;20500;-76
2021/10/18 01:07:50;;;;;;;39.95;16.33;;;;;;;;;;8234557;28;20469;-75
2021/10/18 01:11:55;;;;;;;42.67;17.83;;;;;;;;;;8198887;28;20377;-75
2021/10/18 01:16:01;;;;;;;42.20;15.40;;;;;;;;;;8198959;28;20465;-76
2021/10/18 01:20:11;;;;;;;38.15;15.25;;;;;;;;;;8198077;28;20495;-76
2021/10/18 01:24:17;;;;;;;33.50;15.48;;;;;;;;;;8197976;28;20500;-75
2021/10/18 01:28:22;;;;;;;41.55;15.27;;;;;;;;;;8199591;28;20473;-75
2021/10/18 01:32:27;;;;;;;45.72;18.42;;;;;;;;;;8201937;28;20487;-76
2021/10/18 01:36:33;;;;;;;44.13;18.35;;;;;;;;;;8200757;28;20364;-76
2021/10/18 01:40:39;;;;;;;47.17;19.48;;;;;;;;;;8198314;28;20372;-76
2021/10/18 01:44:44;;;;;;;67.57;24.85;;;;;;;;;;8198308;28;20377;-75
2021/10/18 01:48:49;;;;;;;118.50;43.28;;;;;;;;;;8199680;28;20061;-75
2021/10/18 01:52:55;;;;;;;133.23;45.28;;;;;;;;;;8182637;28;20045;-76
2021/10/18 01:57:00;;;;;;;50.28;22.58;;;;;;;;;;8197951;28;20068;-76
2021/10/18 02:01:06;;;;;;;53.60;22.15;;;;;;;;;;8199003;28;21312;-76
2021/10/18 02:05:11;;;;;;;62.83;25.35;;;;;;;;;;8197869;28;20487;-75
2021/10/18 02:09:17;;;;;;;56.38;23.02;;;;;;;;;;8197970;28;20487;-75
2021/10/18 02:13:22;;;;;;;46.20;21.45;;;;;;;;;;8198276;28;20497;-75
2021/10/18 02:17:27;;;;;;;57.20;23.05;;;;;;;;;;8198121;28;20389;-76
2021/10/18 02:21:33;;;;;;;44.15;17.88;;;;;;;;;;8200616;28;20068;-75
2021/10/18 02:25:38;;;;;;;35.85;15.88;;;;;;;;;;8198872;28;20062;-75
2021/10/18 02:29:43;;;;;;;34.28;15.05;;;;;;;;;;8200867;28;20469;-76
2021/10/18 02:33:48;;;;;;;31.67;15.07;;;;;;;;;;8199962;28;20068;-76
2021/10/18 02:37:54;;;;;;;35.90;14.65;;;;;;;;;;8199812;28;20449;-75
2021/10/18 02:41:59;;;;;;;35.15;14.85;;;;;;;;;;8202391;28;20409;-75
2021/10/18 02:46:04;;;;;;;32.10;14.15;;;;;;;;;;8203647;28;20472;-76
2021/10/18 02:50:10;;;;;;;35.42;14.05;;;;;;;;;;8217971;28;20046;-75
2021/10/18 02:54:16;;;;;;;36.15;15.07;;;;;;;;;;8203892;28;20420;-75
2021/10/18 02:58:21;;;;;;;34.78;14.13;;;;;;;;;;8201908;28;20364;-75
2021/10/18 03:02:27;;;;;;;37.85;15.60;;;;;;;;;;8202753;28;20160;-75
2021/10/18 03:06:32;;;;;;;45.30;16.92;;;;;;;;;;8201441;28;20496;-75
2021/10/18 03:10:40;;;;;;;40.17;15.52;;;;;;;;;;8201735;28;20362;-76
2021/10/18 03:14:46;;;;;;;40.78;15.65;;;;;;;;;;8203618;28;20068;-75
2021/10/18 03:18:51;;;;;;;39.58;16.00;;;;;;;;;;8201809;28;20372;-76
2021/10/18 03:22:56;;;;;;;31.65;14.95;;;;;;;;;;8200649;28;20392;-76
2021/10/18 03:27:02;;;;;;;39.63;15.50;;;;;;;;;;8185925;28;20378;-75
2021/10/18 03:31:07;;;;;;;39.95;15.27;;;;;;;;;;8215973;28;20034;-75
2021/10/18 03:35:12;;;;;;;32.20;15.15;;;;;;;;;;8198770;28;20523;-75
2021/10/18 03:39:18;;;;;;;41.53;16.15;;;;;;;;;;8197534;28;20527;-75
2021/10/18 03:43:23;;;;;;;41.70;16.83;;;;;;;;;;8197820;28;20465;-76
2021/10/18 03:47:30;;;;;;;41.25;15.48;;;;;;;;;;8201903;28;20477;-76
2021/10/18 03:51:35;;;;;;;37.33;16.65;;;;;;;;;;8204923;28;20377;-76
2021/10/18 03:55:40;;;;;;;40.88;17.45;;;;;;;;;;8204652;28;20042;-75
2021/10/18 03:59:45;;;;;;;37.38;17.45;;;;;;;;;;8205126;28;20046;-76
2021/10/18 04:03:51;;;;;;;40.45;17.63;;;;;;;;;;8220612;28;20046;-76
2021/10/18 04:07:58;;;;;;;42.03;17.67;;;;;;;;;;8203461;28;20050;-75
2021/10/18 04:12:04;;;;;;;52.97;19.90;;;;;;;;;;8226813;28;20468;-75
2021/10/18 04:16:10;;;;;;;51.00;21.85;;;;;;;;;;8223629;28;20045;-76
2021/10/18 04:20:15;;;;;;;51.30;21.55;;;;;;;;;;8222325;28;20045;-75
2021/10/18 04:24:23;;;;;;;55.38;22.30;;;;;;;;;;8220336;28;20428;-76
2021/10/18 04:28:28;;;;;;;52.92;20.80;;;;;;;;;;8236101;28;20499;-76
2021/10/18 04:32:34;;;;;;;49.13;20.40;;;;;;;;;;8216990;28;20050;-75
2021/10/18 04:36:39;;;;;;;66.28;24.83;;;;;;;;;;8231042;28;20139;-75
2021/10/18 04:40:44;;;;;;;76.25;25.92;;;;;;;;;;8231532;28;20100;-75
2021/10/18 04:44:49;;;;;;;85.97;26.67;;;;;;;;;;8229631;28;20350;-75
2021/10/18 04:48:54;;;;;;;77.00;26.58;;;;;;;;;;8230490;28;20499;-75
2021/10/18 04:52:59;;;;;;;66.40;24.98;;;;;;;;;;8228530;28;20095;-76
2021/10/18 04:57:05;;;;;;;61.80;23.60;;;;;;;;;;8228115;28;20475;-75
2021/10/18 05:01:10;;;;;;;60.67;24.58;;;;;;;;;;8227520;28;20046;-76
2021/10/18 05:05:15;;;;;;;67.45;25.52;;;;;;;;;;8226270;28;20041;-75
2021/10/18 05:09:21;;;;;;;84.28;26.55;;;;;;;;;;8210610;28;20449;-75
2021/10/18 05:13:27;;;;;;;67.70;25.30;;;;;;;;;;8226730;28;20377;-75
2021/10/18 05:17:32;;;;;;;60.47;23.27;;;;;;;;;;8227595;28;20465;-75
2021/10/18 05:21:37;;;;;;;47.35;20.63;;;;;;;;;;8227752;28;20335;-75
2021/10/18 05:25:43;;;;;;;52.92;20.42;;;;;;;;;;8230160;28;20464;-76
2021/10/18 05:29:48;;;;;;;40.70;18.95;;;;;;;;;;8227733;28;20088;-76
2021/10/18 05:33:53;;;;;;;46.60;18.38;;;;;;;;;;8227955;28;20060;-75
2021/10/18 05:37:59;;;;;;;43.53;17.88;;;;;;;;;;8225409;28;20479;-75
2021/10/18 05:42:04;;;;;;;44.10;17.85;;;;;;;;;;8209804;28;20057;-75
2021/10/18 05:46:09;;;;;;;44.88;21.45;;;;;;;;;;8226992;28;20507;-75
2021/10/18 05:50:15;;;;;;;54.95;24.85;;;;;;;;;;8225112;28;20139;-75
2021/10/18 05:54:20;;;;;;;46.47;21.40;;;;;;;;;;8227214;28;20467;-75
2021/10/18 05:58:25;;;;;;;52.10;21.40;;;;;;;;;;8227698;28;20476;-75
2021/10/18 06:02:30;;;;;;;50.72;22.63;;;;;;;;;;8224819;28;20380;-75
2021/10/18 06:06:35;;;;;;;47.85;22.48;;;;;;;;;;8226749;28;20479;-75
2021/10/18 06:10:49;;;;;;;49.20;20.25;;;;;;;;;;8193141;28;20350;-75
2021/10/18 06:14:54;;;;;;;45.33;17.92;;;;;;;;;;8225770;28;20037;-75
2021/10/18 06:18:59;;;;;;;35.70;17.40;;;;;;;;;;8224992;28;20049;-75
2021/10/18 06:23:05;;;;;;;46.28;19.45;;;;;;;;;;8208002;28;20049;-75
2021/10/18 06:27:10;;;;;;;40.30;18.42;;;;;;;;;;8225507;28;20042;-75
2021/10/18 06:31:16;;;;;;;36.53;18.85;;;;;;;;;;8209121;28;20361;-75
2021/10/18 06:35:24;;;;;;;36.35;18.30;;;;;;;;;;8226191;28;20093;-75
2021/10/18 06:39:29;;;;;;;43.38;19.40;;;;;;;;;;8209084;28;20072;-75
2021/10/18 06:43:34;;;;;;;35.88;18.02;;;;;;;;;;8207941;28;20575;-75
2021/10/18 06:47:40;;;;;;;37.95;18.35;;;;;;;;;;8224830;28;20484;-75
2021/10/18 06:51:48;;;;;;;39.50;17.67;;;;;;;;;;8225332;28;20472;-75
2021/10/18 06:55:53;;;;;;;42.63;17.90;;;;;;;;;;8208787;28;20487;-75
2021/10/18 06:59:59;;;;;;;38.22;18.70;;;;;;;;;;8226664;28;20484;-75
2021/10/18 07:04:06;;;;;;;47.10;20.27;;;;;;;;;;8225970;28;20519;-75
2021/10/18 07:08:11;;;;;;;42.25;21.83;;;;;;;;;;8226863;28;20364;-75
2021/10/18 07:12:16;;;;;;;49.58;24.17;;;;;;;;;;8226399;28;20071;-75
2021/10/18 07:16:22;;;;;;;43.85;22.05;;;;;;;;;;8226544;28;20364;-75
2021/10/18 07:20:28;;;;;;;56.15;24.95;;;;;;;;;;8209724;28;20500;-74
2021/10/18 07:24:32;;;;;;;42.28;21.73;;;;;;;;;;8237154;28;20075;-75
2021/10/18 07:28:37;;;;;;;41.70;19.75;;;;;;;;;;8235543;28;20042;-75
2021/10/18 07:32:44;;;;;;;43.72;21.42;;;;;;;;;;8235923;28;20360;-75
2021/10/18 07:36:49;;;;;;;53.35;27.73;;;;;;;;;;8236624;28;20364;-75
2021/10/18 07:40:55;;;;;;;55.90;25.80;;;;;;;;;;8234758;28;20080;-74
2021/10/18 07:45:00;;;;;;;65.38;32.97;;;;;;;;;;8236406;28;20379;-75
2021/10/18 07:49:05;;;;;;;57.67;24.95;;;;;;;;;;8218570;28;20499;-75
2021/10/18 07:53:11;;;;;;;44.03;21.85;;;;;;;;;;8217792;28;20049;-74
2021/10/18 07:57:16;;;;;;;56.10;24.10;;;;;;;;;;8237701;28;20037;-74
2021/10/18 08:01:21;;;;;;;41.83;21.52;;;;;;;;;;8238361;28;20041;-74
2021/10/18 08:05:26;;;;;;;40.38;19.83;;;;;;;;;;8236398;28;20477;-75
2021/10/18 08:09:32;;;;;;;37.38;20.15;;;;;;;;;;8219447;28;20453;-75
2021/10/18 08:13:38;;;;;;;35.10;17.38;;;;;;;;;;8185401;28;20477;-74
2021/10/18 08:17:43;;;;;;;29.90;14.38;;;;;;;;;;8171311;28;20504;-74
2021/10/18 08:21:49;;;;;;;37.42;18.70;;;;;;;;;;8157970;28;20474;-75
2021/10/18 08:25:55;;;;;;;22.85;12.50;;;;;;;;;;8170650;28;20447;-74
2021/10/18 08:30:01;;;;;;;21.73;12.35;;;;;;;;;;8170511;28;20390;-74
2021/10/18 08:34:06;;;;;;;35.20;17.80;;;;;;;;;;8167396;28;20043;-74
2021/10/18 08:38:19;;;;;;;22.45;10.95;;;;;;;;;;8165709;28;20058;-75
2021/10/18 08:42:28;;;;;;;18.52;10.13;;;;;;;;;;8167112;28;20348;-74
2021/10/18 08:46:33;;;;;;;19.73;10.03;;;;;;;;;;8166227;28;20069;-74
2021/10/18 08:50:39;;;;;;;18.23;9.88;;;;;;;;;;8163219;28;20481;-74
2021/10/18 08:54:44;;;;;;;19.45;8.50;;;;;;;;;;8180084;28;20038;-74
2021/10/18 08:58:50;;;;;;;17.65;8.35;;;;;;;;;;8181223;28;20493;-75
2021/10/18 09:02:57;;;;;;;11.25;7.20;;;;;;;;;;8164918;28;20381;-74
2021/10/18 09:07:13;;;;;;;10.65;6.53;;;;;;;;;;8164480;28;20496;-75
2021/10/18 09:11:26;;;;;;;16.13;7.35;;;;;;;;;;8188079;28;20368;-74
2021/10/18 09:15:31;;;;;;;12.90;7.70;;;;;;;;;;8191589;28;20377;-74
2021/10/18 09:19:36;;;;;;;19.52;7.53;;;;;;;;;;8213205;28;20461;-74
2021/10/18 09:23:42;;;;;;;13.98;7.95;;;;;;;;;;8230853;28;20364;-75
2021/10/18 09:28:06;;;;;;;87.70;34.35;;;;;;;;;;8227890;28;20387;-74
2021/10/18 09:32:19;;;;;;;43.92;21.02;;;;;;;;;;8215351;28;20495;-74
2021/10/18 09:36:33;;;;;;;13.35;7.55;;;;;;;;;;8214045;28;20381;-74
2021/10/18 09:40:40;;;;;;;21.65;10.38;;;;;;;;;;8213094;28;20449;-74
2021/10/18 09:44:54;;;;;;;38.30;14.30;;;;;;;;;;8228873;28;20350;-74
2021/10/18 10:52:01;;;;;;;24.48;13.45;;;;;;;;;;8196383;28;20163;-74
2021/10/18 10:56:26;;;;;;;23.20;13.57;;;;;;;;;;8226827;28;20049;-74
2021/10/18 11:00:42;;;;;;;27.23;14.90;;;;;;;;;;8227727;28;20067;-74
2021/10/18 11:04:48;;;;;;;18.33;11.50;;;;;;;;;;8209727;28;20372;-74
2021/10/18 11:08:53;;;;;;;19.38;11.18;;;;;;;;;;8225521;28;20472;-74
2021/10/18 11:13:08;;;;;;;20.02;11.75;;;;;;;;;;8191329;28;20493;-74
2021/10/18 11:17:16;;;;;;;17.95;11.00;;;;;;;;;;8192302;28;20487;-74
2021/10/18 11:21:30;;;;;;;17.45;11.07;;;;;;;;;;8193125;28;20495;-74
2021/10/18 11:25:38;;;;;;;18.75;10.75;;;;;;;;;;8193486;28;20412;-74
2021/10/18 11:29:43;;;;;;;;;;;;;;;;;;8193764;28;20072;-74
2021/10/18 11:34:13;;;;;;;15.18;9.80;;;;;;;;;;8195533;28;20235;-76
2021/10/18 11:38:19;;;;;;;16.00;9.48;;;;;;;;;;8193386;28;20492;-74
2021/10/18 11:42:25;;;;;;;46.47;22.30;;;;;;;;;;8208205;28;20469;-74
2021/10/18 11:46:38;;;;;;;22.38;11.52;;;;;;;;;;8194660;28;20045;-75
2021/10/18 11:50:46;;;;;;;21.52;12.10;;;;;;;;;;8118316;28;20114;-74
2021/10/18 11:54:53;;;;;;;;;;;;;;;;;;8158774;28;20377;-75
2021/10/18 11:59:05;;;;;;;23.60;10.70;;;;;;;;;;8124733;28;20273;-74
2021/10/18 12:03:17;;;;;;;26.58;15.68;;;;;;;;;;8155556;28;20454;-75
2021/10/18 12:07:39;;;;;;;29.60;17.08;;;;;;;;;;8128274;28;20049;-74
2021/10/18 12:11:47;;;;;;;23.48;15.20;;;;;;;;;;8212489;28;20491;-75
2021/10/18 12:16:06;;;;;;;15.50;10.23;;;;;;;;;;8230079;28;20373;-74
2021/10/18 12:20:11;;;;;;;;;;;;;;;;;;8230160;28;20476;-74
2021/10/18 12:24:18;;;;;;;15.13;8.90;;;;;;;;;;8227129;28;20340;-76
2021/10/18 12:28:43;;;;;;;15.63;10.23;;;;;;;;;;8212310;28;20481;-75
2021/10/18 12:33:12;;;;;;;16.67;10.40;;;;;;;;;;8212454;28;20486;-74
2021/10/18 12:37:17;;;;;;;14.43;9.27;;;;;;;;;;8230381;28;20356;-74
2021/10/18 12:41:22;;;;;;;17.98;10.05;;;;;;;;;;8228073;28;20099;-74
2021/10/18 12:45:35;;;;;;;14.25;10.10;;;;;;;;;;8229062;28;20457;-74
2021/10/18 12:49:40;;;;;;;34.22;15.88;;;;;;;;;;8212564;28;20483;-74
2021/10/18 12:53:46;;;;;;;21.60;12.90;;;;;;;;;;8227313;28;20375;-74
2021/10/18 12:57:57;;;;;;;18.30;12.38;;;;;;;;;;8230323;28;20472;-74
2021/10/18 13:02:23;;;;;;;21.48;13.57;;;;;;;;;;8213814;28;20492;-74
2021/10/18 13:06:29;;;;;;;22.13;14.38;;;;;;;;;;8232125;28;20453;-74
2021/10/18 13:10:37;;;;;;;37.85;18.98;;;;;;;;;;8210727;28;20503;-74
2021/10/18 13:14:43;;;;;;;24.83;15.07;;;;;;;;;;8228137;28;20366;-74
2021/10/18 13:18:49;;;;;;;30.73;17.75;;;;;;;;;;8210261;28;20368;-74
2021/10/18 13:23:01;;;;;;;36.42;19.08;;;;;;;;;;8228054;28;20472;-75
2021/10/18 13:27:06;;;;;;;31.42;17.83;;;;;;;;;;8193808;28;20461;-74
2021/10/18 13:31:11;;;;;;;32.85;18.20;;;;;;;;;;8209824;28;20476;-75
2021/10/18 13:35:17;;;;;;;34.03;16.50;;;;;;;;;;8227643;28;20064;-74
2021/10/18 13:39:23;;;;;;;35.25;15.90;;;;;;;;;;8211798;28;20045;-74
2021/10/18 13:43:31;;;;;;;31.58;17.05;;;;;;;;;;8228300;28;20061;-75
2021/10/18 13:47:38;;;;;;;41.30;18.23;;;;;;;;;;8210643;28;20049;-75
2021/10/18 13:51:44;;;;;;;37.30;16.98;;;;;;;;;;8230133;28;20080;-74
2021/10/18 13:55:50;;;;;;;41.72;17.10;;;;;;;;;;8211631;28;20064;-74
2021/10/18 13:59:55;;;;;;;31.67;17.27;;;;;;;;;;8227342;28;20057;-74
2021/10/18 14:04:00;;;;;;;29.17;18.17;;;;;;;;;;8229102;28;20071;-75
2021/10/18 14:08:06;;;;;;;34.45;17.67;;;;;;;;;;8211369;28;20101;-74
2021/10/18 14:12:13;;;;;;;43.38;19.92;;;;;;;;;;8177332;28;20454;-74
2021/10/18 14:16:18;;;;;;;27.90;15.40;;;;;;;;;;8197466;28;20507;-75
2021/10/18 14:20:23;;;;;;;64.47;29.85;;;;;;;;;;8194595;28;20481;-74
2021/10/18 14:24:30;;;;;;;42.15;22.83;;;;;;;;;;8194168;28;20466;-74
2021/10/18 14:28:35;;;;;;;36.58;19.83;;;;;;;;;;8193705;28;20480;-75
2021/10/18 14:32:40;;;;;;;26.40;13.88;;;;;;;;;;8194457;28;20366;-74
2021/10/18 14:36:46;;;;;;;21.92;12.77;;;;;;;;;;8193477;28;20492;-74
2021/10/18 14:40:51;;;;;;;26.38;14.13;;;;;;;;;;8193230;28;20484;-74
2021/10/18 14:44:56;;;;;;;24.58;13.30;;;;;;;;;;8192977;28;20334;-75
2021/10/18 14:49:01;;;;;;;23.23;13.98;;;;;;;;;;8195704;28;20400;-75
2021/10/18 14:53:08;;;;;;;37.42;20.52;;;;;;;;;;8207916;28;20073;-75
2021/10/18 14:57:34;;;;;;;35.75;19.52;;;;;;;;;;8194300;28;20066;-74
2021/10/18 15:01:40;;;;;;;28.45;16.48;;;;;;;;;;8208387;28;20465;-74
2021/10/18 15:05:47;;;;;;;24.70;12.50;;;;;;;;;;8193325;28;20453;-75
2021/10/18 15:09:51;;;;;;;37.30;19.20;;;;;;;;;;8192570;28;20034;-75
2021/10/18 15:13:56;;;;;;;42.67;20.27;;;;;;;;;;8224695;28;20469;-74
2021/10/18 15:18:01;;;;;;;40.17;21.67;;;;;;;;;;8224994;28;20491;-75
2021/10/18 15:22:10;;;;;;;25.48;15.57;;;;;;;;;;8224075;28;20453;-74
2021/10/18 15:26:16;;;;;;;42.63;20.48;;;;;;;;;;8225742;28;20393;-74
2021/10/18 15:30:21;;;;;;;46.78;21.83;;;;;;;;;;8225273;28;20416;-75
2021/10/18 15:34:27;;;;;;;35.38;18.90;;;;;;;;;;8224932;28;21042;-75
2021/10/18 15:38:32;;;;;;;81.15;27.67;;;;;;;;;;8223163;28;20045;-75
2021/10/18 15:42:38;;;;;;;97.45;30.35;;;;;;;;;;8207932;28;20488;-75
2021/10/18 15:46:43;;;;;;;113.60;34.42;;;;;;;;;;8229368;28;20459;-75
2021/10/18 15:50:49;;;;;;;73.72;27.30;;;;;;;;;;8230528;28;20045;-75
2021/10/18 15:54:54;;;;;;;67.25;31.02;;;;;;;;;;8196817;28;20468;-75
2021/10/18 15:59:00;;;;;;;56.67;29.67;;;;;;;;;;8230109;28;20077;-75
2021/10/18 16:03:05;;;;;;;58.42;29.80;;;;;;;;;;8213122;28;20480;-74
2021/10/18 16:07:11;;;;;;;74.38;33.22;;;;;;;;;;8230482;28;20068;-75
2021/10/18 16:11:16;;;;;;;86.53;35.90;;;;;;;;;;8213131;28;20507;-75
2021/10/18 16:15:22;;;;;;;104.53;43.70;;;;;;;;;;8211377;28;20041;-75
2021/10/18 16:19:27;;;;;;;101.30;44.25;;;;;;;;;;8228306;28;20503;-75
2021/10/18 16:23:32;;;;;;;79.55;37.22;;;;;;;;;;8230363;28;20465;-75
2021/10/18 16:27:38;;;;;;;54.25;23.63;;;;;;;;;;8228085;28;20049;-75
2021/10/18 16:31:44;;;;;;;51.85;24.75;;;;;;;;;;8212979;28;20514;-74
2021/10/18 16:35:51;;;;;;;72.45;35.35;;;;;;;;;;8212495;28;20373;-76
2021/10/18 16:39:56;;;;;;;79.55;38.90;;;;;;;;;;8212507;28;20068;-75
2021/10/18 16:44:02;;;;;;;67.57;29.13;;;;;;;;;;8212767;28;20045;-74
2021/10/18 16:48:07;;;;;;;89.20;33.72;;;;;;;;;;8226987;28;20041;-75
2021/10/18 16:52:13;;;;;;;78.47;34.13;;;;;;;;;;8211393;28;20068;-75
2021/10/18 16:56:18;;;;;;;89.88;34.40;;;;;;;;;;8227554;28;20500;-75
2021/10/18 17:00:23;;;;;;;142.57;55.05;;;;;;;;;;8230498;28;20072;-75
2021/10/18 17:04:28;;;;;;;113.35;51.40;;;;;;;;;;8231100;28;20498;-74
2021/10/18 17:08:34;;;;;;;83.35;42.03;;;;;;;;;;8230365;28;20334;-74
2021/10/18 17:12:39;;;;;;;98.20;42.28;;;;;;;;;;8194807;28;20462;-75
2021/10/18 17:16:45;;;;;;;82.28;39.83;;;;;;;;;;8212008;28;20100;-75
2021/10/18 17:20:51;;;;;;;63.67;32.17;;;;;;;;;;8194765;28;20449;-75
2021/10/18 17:24:56;;;;;;;62.38;33.65;;;;;;;;;;8196220;28;20503;-75
2021/10/18 17:29:05;;;;;;;53.83;31.02;;;;;;;;;;8194218;28;20466;-75
2021/10/18 17:33:10;;;;;;;52.80;29.85;;;;;;;;;;8195866;28;20360;-74
2021/10/18 17:37:15;;;;;;;72.32;36.58;;;;;;;;;;8195336;28;20476;-74
2021/10/18 17:41:21;;;;;;;70.90;34.15;;;;;;;;;;8193518;28;20466;-75
2021/10/18 17:45:26;;;;;;;64.45;33.97;;;;;;;;;;8195160;28;20346;-75
2021/10/18 17:49:34;;;;;;;77.00;38.75;;;;;;;;;;8193172;28;20108;-75
2021/10/18 17:53:41;;;;;;;67.50;34.53;;;;;;;;;;8195165;28;20350;-74
2021/10/18 17:57:48;;;;;;;77.13;33.72;;;;;;;;;;8193542;28;20496;-74
2021/10/18 18:01:52;;;;;;;84.10;39.15;;;;;;;;;;8195740;28;20050;-74
2021/10/18 18:05:57;;;;;;;75.13;33.30;;;;;;;;;;8194274;28;20465;-75
2021/10/18 18:10:03;;;;;;;72.80;34.58;;;;;;;;;;8193250;28;20042;-75
2021/10/18 18:14:07;;;;;;;62.55;32.97;;;;;;;;;;8209388;28;20444;-75
2021/10/18 18:18:13;;;;;;;77.78;35.40;;;;;;;;;;8208593;28;20524;-75
2021/10/18 18:22:19;;;;;;;72.95;33.35;;;;;;;;;;8227851;28;20059;-74
2021/10/18 18:26:24;;;;;;;70.80;33.13;;;;;;;;;;8208753;28;20409;-75
2021/10/18 18:30:29;;;;;;;72.88;31.17;;;;;;;;;;8208458;28;20415;-75
2021/10/18 18:34:35;;;;;;;62.75;31.45;;;;;;;;;;8225715;28;20468;-75
2021/10/18 18:38:40;;;;;;;67.88;33.45;;;;;;;;;;8225219;28;20049;-74
2021/10/18 18:42:47;;;;;;;109.68;50.60;;;;;;;;;;8208185;28;20357;-75
2021/10/18 18:46:53;;;;;;;102.30;46.28;;;;;;;;;;8207967;28;20379;-75
2021/10/18 18:50:58;;;;;;;98.15;39.42;;;;;;;;;;8208492;28;20440;-75
2021/10/18 18:55:04;;;;;;;90.55;38.58;;;;;;;;;;8224909;28;20486;-74
2021/10/18 18:59:09;;;;;;;141.70;48.40;;;;;;;;;;8224843;28;20500;-75
2021/10/18 19:03:15;;;;;;;92.85;40.00;;;;;;;;;;8225569;28;20492;-75
2021/10/18 19:07:21;;;;;;;91.70;38.67;;;;;;;;;;8224840;28;20361;-74
2021/10/18 19:11:26;;;;;;;150.25;59.08;;;;;;;;;;8224827;28;20361;-74
2021/10/18 19:15:34;;;;;;;142.02;52.75;;;;;;;;;;8208394;28;20363;-74
2021/10/18 19:19:40;;;;;;;92.18;38.67;;;;;;;;;;8224200;28;20472;-74
2021/10/18 19:23:50;;;;;;;73.63;32.70;;;;;;;;;;8209357;28;20042;-74
2021/10/18 19:27:55;;;;;;;58.28;29.65;;;;;;;;;;8224646;28;20468;-75
2021/10/18 19:32:03;;;;;;;64.25;29.65;;;;;;;;;;8224975;28;20060;-74
2021/10/18 19:36:08;;;;;;;64.38;32.53;;;;;;;;;;8223793;28;20072;-74
2021/10/18 19:40:14;;;;;;;91.20;42.03;;;;;;;;;;8224665;28;20480;-74
2021/10/18 19:44:20;;;;;;;108.53;42.88;;;;;;;;;;8225078;28;20071;-74
2021/10/18 19:48:25;;;;;;;105.03;42.88;;;;;;;;;;8224362;28;20453;-74
2021/10/18 19:52:35;;;;;;;90.13;36.45;;;;;;;;;;8224633;28;20384;-75
2021/10/18 19:56:40;;;;;;;75.32;34.17;;;;;;;;;;8224232;28;20385;-74
2021/10/18 20:00:47;;;;;;;73.47;34.55;;;;;;;;;;8223620;28;20499;-74
2021/10/18 20:04:52;;;;;;;68.20;33.67;;;;;;;;;;8207509;28;20498;-74
2021/10/18 20:08:57;;;;;;;77.97;33.33;;;;;;;;;;8224498;28;20041;-74
2021/10/18 20:13:03;;;;;;;74.88;36.95;;;;;;;;;;8223295;28;20076;-75
2021/10/18 20:17:09;;;;;;;76.60;33.20;;;;;;;;;;8223670;28;20472;-74
2021/10/18 20:21:14;;;;;;;77.40;35.78;;;;;;;;;;8207597;28;20046;-74
2021/10/18 20:25:20;;;;;;;69.00;33.35;;;;;;;;;;8223801;28;20489;-74
2021/10/18 20:29:26;;;;;;;81.40;35.67;;;;;;;;;;8227691;28;20461;-75
2021/10/18 20:33:31;;;;;;;77.13;36.03;;;;;;;;;;8229446;28;20055;-75
2021/10/18 20:37:36;;;;;;;78.78;35.83;;;;;;;;;;8212244;28;20479;-74
2021/10/18 20:41:59;;;;;;;92.60;37.00;;;;;;;;;;8214918;28;20472;-74
2021/10/18 20:46:04;;;;;;;109.50;43.30;;;;;;;;;;8229266;28;20373;-74
2021/10/18 20:50:10;;;;;;;113.03;43.35;;;;;;;;;;8197061;28;20053;-75
2021/10/18 20:54:15;;;;;;;91.03;36.78;;;;;;;;;;8230578;28;20068;-74
2021/10/18 20:58:20;;;;;;;88.55;36.78;;;;;;;;;;8213133;28;20064;-75
2021/10/18 21:02:26;;;;;;;76.32;32.47;;;;;;;;;;8212332;28;20445;-74
2021/10/18 21:06:31;;;;;;;70.13;28.75;;;;;;;;;;8231015;28;20487;-74
2021/10/18 21:10:37;;;;;;;63.13;26.00;;;;;;;;;;8224604;28;20053;-74
2021/10/18 21:14:42;;;;;;;62.47;26.67;;;;;;;;;;8194332;28;20499;-74
2021/10/18 21:18:47;;;;;;;82.00;29.13;;;;;;;;;;8195990;28;20469;-75
2021/10/18 21:22:54;;;;;;;86.72;28.40;;;;;;;;;;8197566;28;20038;-74
2021/10/18 21:26:59;;;;;;;90.35;27.50;;;;;;;;;;8194253;28;20492;-75
2021/10/18 21:31:04;;;;;;;78.85;27.02;;;;;;;;;;8194612;28;20437;-74
2021/10/18 21:35:10;;;;;;;73.32;23.70;;;;;;;;;;8196477;28;20393;-75
2021/10/18 21:39:15;;;;;;;113.65;26.85;;;;;;;;;;8195660;28;20484;-75
2021/10/18 21:43:20;;;;;;;134.90;26.98;;;;;;;;;;8195685;28;20481;-74
2021/10/18 21:47:35;;;;;;;112.05;27.88;;;;;;;;;;8194123;28;20484;-74
2021/10/18 21:51:41;;;;;;;79.72;27.63;;;;;;;;;;8194098;28;20365;-74
2021/10/18 21:55:46;;;;;;;112.10;27.55;;;;;;;;;;8193206;28;20385;-74
2021/10/18 21:59:51;;;;;;;104.18;24.92;;;;;;;;;;8209636;28;20072;-74
2021/10/18 22:03:56;;;;;;;93.25;24.25;;;;;;;;;;8194430;28;20353;-74
2021/10/18 22:08:01;;;;;;;117.22;24.70;;;;;;;;;;8194374;28;20042;-75
2021/10/18 22:12:06;;;;;;;106.22;23.65;;;;;;;;;;8209250;28;20496;-74
2021/10/18 22:16:11;;;;;;;72.45;22.00;;;;;;;;;;8226164;28;20338;-75
2021/10/18 22:20:18;;;;;;;63.22;21.30;;;;;;;;;;8224615;28;20464;-74
2021/10/18 22:24:23;;;;;;;60.65;20.05;;;;;;;;;;8032352;28;5001088;-74
2021/10/18 22:28:28;;;;;;;66.20;19.73;;;;;;;;;;8226505;28;20457;-75
2021/10/18 22:32:34;;;;;;;41.35;18.33;;;;;;;;;;8208953;28;20440;-74
2021/10/18 22:36:40;;;;;;;49.35;17.35;;;;;;;;;;8209599;28;20073;-74
2021/10/18 22:40:46;;;;;;;52.10;18.13;;;;;;;;;;8226332;28;20484;-74
2021/10/18 22:44:52;;;;;;;61.65;18.17;;;;;;;;;;8192203;28;20326;-74
2021/10/18 22:48:57;;;;;;;52.67;17.15;;;;;;;;;;8208337;28;20057;-74
2021/10/18 22:53:02;;;;;;;49.78;18.02;;;;;;;;;;8208369;28;20131;-74
2021/10/18 22:57:07;;;;;;;49.95;19.55;;;;;;;;;;8225665;28;20420;-74
2021/10/18 23:01:12;;;;;;;47.45;19.80;;;;;;;;;;8208152;28;20481;-74
2021/10/18 23:05:22;;;;;;;48.53;19.02;;;;;;;;;;8226449;28;20575;-74
2021/10/18 23:09:26;;;;;;;;;;;;;;;;;;8224784;28;20474;-76
2021/10/18 23:13:31;;;;;;;35.60;16.25;;;;;;;;;;8191497;28;20348;-74
2021/10/18 23:17:37;;;;;;;44.78;17.95;;;;;;;;;;8191849;28;20384;-74
2021/10/18 23:21:42;;;;;;;46.25;17.38;;;;;;;;;;8175152;28;20489;-74
2021/10/18 23:25:47;;;;;;;47.42;17.15;;;;;;;;;;8190520;28;20408;-74
2021/10/18 23:29:57;;;;;;;52.33;19.42;;;;;;;;;;8191035;28;20469;-75
2021/10/18 23:34:02;;;;;;;48.72;18.42;;;;;;;;;;8192242;28;20072;-74
2021/10/18 23:38:07;;;;;;;40.17;18.02;;;;;;;;;;8192487;28;20465;-75
2021/10/18 23:42:13;;;;;;;40.85;17.92;;;;;;;;;;8175734;28;20452;-74
2021/10/18 23:46:18;;;;;;;70.57;22.73;;;;;;;;;;8194209;28;20339;-74
2021/10/18 23:50:23;;;;;;;62.65;24.58;;;;;;;;;;8192676;28;20353;-74
2021/10/18 23:54:28;;;;;;;52.80;21.65;;;;;;;;;;8189839;28;20089;-74
2021/10/18 23:58:33;;;;;;;45.72;19.27;;;;;;;;;;8191142;28;20438;-74
